Time;durP1;ratioP1;P1;durP2;ratioP2;P2;SDS_P1;SDS_P2;PMS_P1;PMS_P2;Temp;Humidity;BMP_temperature;BMP_pressure;BME280_temperature;BME280_humidity;BME280_pressure;Samples;Min_cycle;Max_cycle;Signal;HPM_P1;HPM_P2
2022/01/14 00:01:48;;;;;;;35.13;16.92;;;3.00;99.90;;;4.12;100.00;102570.63;5040307;28;20037;-85
2022/01/14 00:04:14;;;;;;;35.20;16.23;;;3.00;99.90;;;4.15;100.00;102570.09;5039571;28;20119;-85
2022/01/14 00:06:40;;;;;;;36.55;16.10;;;3.00;99.90;;;4.19;100.00;102565.69;5039938;28;20029;-82
2022/01/14 00:09:10;;;;;;;36.35;16.95;;;3.10;99.90;;;4.19;100.00;102566.53;5039511;28;20025;-82
2022/01/14 00:11:53;;;;;;;36.85;16.00;;;3.00;99.90;;;4.18;100.00;102564.03;5038072;28;20025;-80
2022/01/14 00:14:36;;;;;;;40.83;17.20;;;3.00;99.90;;;4.15;100.00;102559.88;5056101;28;20029;-79
2022/01/14 00:17:09;;;;;;;35.22;15.90;;;3.00;99.90;;;4.08;100.00;102562.03;5038228;28;20036;-81
2022/01/14 00:19:36;;;;;;;36.92;16.67;;;3.00;99.90;;;4.09;100.00;102555.41;5038601;28;20032;-80
2022/01/14 00:22:09;;;;;;;31.98;16.17;;;3.00;99.90;;;4.02;100.00;102552.06;5038534;28;20400;-81
2022/01/14 00:33:06;;;;;;;37.90;15.82;;;3.10;99.90;;;4.17;100.00;102531.97;5056273;28;20086;-82
2022/01/14 00:35:40;;;;;;;34.22;15.90;;;3.10;99.90;;;4.15;100.00;102532.22;5037950;28;20028;-81
2022/01/14 00:38:09;;;;;;;37.42;14.98;;;3.10;99.90;;;4.20;100.00;102535.03;5038049;28;20083;-82
2022/01/14 00:40:35;;;;;;;30.70;15.07;;;3.20;99.90;;;4.26;100.00;102535.88;5038279;28;20052;-85
2022/01/14 00:43:04;;;;;;;33.38;15.20;;;3.10;99.90;;;4.22;100.00;102543.88;5038986;28;20164;-83
2022/01/14 00:45:30;;;;;;;37.92;17.25;;;3.20;99.90;;;4.24;100.00;102530.59;5037175;28;20033;-80
2022/01/14 00:47:59;;;;;;;43.15;16.20;;;3.20;99.90;;;4.27;100.00;102533.94;5037357;28;20090;-83
2022/01/14 00:50:24;;;;;;;37.25;15.15;;;3.20;99.90;;;4.28;100.00;102532.81;5037761;28;20033;-84
2022/01/14 00:52:50;;;;;;;32.80;15.50;;;3.20;99.90;;;4.19;100.00;102527.81;5037090;28;20097;-83
2022/01/14 00:55:26;;;;;;;40.10;15.20;;;3.20;99.90;;;4.25;100.00;102515.66;5037413;28;20032;-80
2022/01/14 01:00:41;;;;;;;36.72;17.65;;;3.20;99.90;;;4.27;100.00;102514.56;5056911;28;20037;-84
2022/01/14 01:03:07;;;;;;;38.42;16.05;;;3.20;99.90;;;4.22;100.00;102516.22;5037813;28;20481;-83
2022/01/14 01:05:33;;;;;;;32.85;14.02;;;3.10;99.90;;;4.21;100.00;102510.94;5037881;28;20075;-84
2022/01/14 01:08:06;;;;;;;33.55;14.90;;;3.20;99.90;;;4.15;100.00;102520.31;5055120;28;20109;-83
2022/01/14 01:10:34;;;;;;;34.92;15.40;;;3.10;99.90;;;4.14;100.00;102518.66;5055916;28;20025;-84
2022/01/14 01:13:17;;;;;;;31.23;15.20;;;3.10;99.90;;;4.17;100.00;102520.91;5038198;28;20077;-83
2022/01/14 01:15:43;;;;;;;38.20;16.63;;;3.10;99.90;;;4.14;100.00;102518.66;5038788;28;20370;-81
2022/01/14 01:18:09;;;;;;;32.70;14.43;;;3.10;99.90;;;4.18;100.00;102530.84;5036875;28;20035;-82
2022/01/14 01:20:35;;;;;;;36.15;15.25;;;3.00;99.90;;;4.09;100.00;102521.41;5037880;28;20060;-82
2022/01/14 01:23:04;;;;;;;32.55;13.80;;;2.90;99.90;;;4.03;100.00;102536.31;5037846;28;20033;-80
2022/01/14 01:25:38;;;;;;;31.85;14.88;;;2.80;99.90;;;3.92;100.00;102529.03;5047785;28;20499;-82
2022/01/14 01:28:04;;;;;;;33.53;15.15;;;2.70;99.90;;;3.72;100.00;102527.81;5061317;28;20028;-83
2022/01/14 01:33:00;;;;;;;35.95;14.77;;;2.50;99.90;;;3.71;100.00;102536.41;5079757;28;20024;-87
2022/01/14 01:35:33;;;;;;;32.65;15.30;;;2.50;99.90;;;3.74;100.00;102549.69;5062894;28;20027;-85
2022/01/14 01:37:59;;;;;;;33.13;16.05;;;2.50;99.90;;;3.86;100.00;102549.47;5079463;28;20028;-85
2022/01/14 01:40:27;;;;;;;33.58;16.42;;;2.60;99.90;;;3.89;100.00;102551.69;5061370;28;20024;-80
2022/01/14 01:42:59;;;;;;;39.08;16.27;;;2.60;99.90;;;3.83;100.00;102559.13;5061357;28;20044;-86
2022/01/14 01:45:26;;;;;;;35.15;16.05;;;2.60;99.90;;;3.68;100.00;102559.88;5077732;28;20112;-84
2022/01/14 01:47:54;;;;;;;34.30;15.15;;;2.50;99.90;;;3.58;100.00;102576.38;5079406;28;20028;-82
2022/01/14 01:50:28;;;;;;;41.95;16.55;;;2.40;99.90;;;3.48;100.00;102572.69;5061770;28;20029;-83
2022/01/14 01:52:55;;;;;;;39.97;16.92;;;2.30;99.90;;;3.37;100.00;102570.97;5060758;28;20031;-82
2022/01/14 01:55:23;;;;;;;36.85;16.73;;;2.20;99.90;;;3.33;100.00;102573.41;5078655;28;20028;-84
2022/01/14 01:57:53;;;;;;;30.73;14.73;;;2.20;99.90;;;3.22;100.00;102573.56;5078500;28;20029;-86
2022/01/14 02:00:25;;;;;;;36.58;16.35;;;2.00;99.90;;;3.10;100.00;102576.50;5061896;28;20062;-83
2022/01/14 02:02:54;;;;;;;38.95;17.02;;;1.90;99.90;;;3.00;100.00;102571.72;5077550;28;20032;-83
2022/01/14 02:05:22;;;;;;;33.30;15.90;;;1.90;99.90;;;2.96;100.00;102586.31;5060734;28;20376;-84
2022/01/14 02:07:48;;;;;;;35.08;17.65;;;1.80;99.90;;;2.84;100.00;102585.63;5060620;28;20032;-81
2022/01/14 02:10:15;;;;;;;39.42;17.80;;;1.70;99.90;;;2.77;100.00;102588.59;5061396;28;20085;-85
2022/01/14 02:12:50;;;;;;;41.22;17.73;;;1.60;99.90;;;2.61;100.00;102581.22;5078771;28;20074;-83
2022/01/14 02:23:29;;;;;;;32.95;15.60;;;1.30;99.90;;;2.24;100.00;102564.53;5078405;28;20051;-86
2022/01/14 02:25:55;;;;;;;35.05;17.15;;;1.10;99.90;;;2.13;100.00;102562.72;5056827;28;20211;-85
2022/01/14 02:28:22;;;;;;;36.92;16.00;;;1.00;99.90;;;2.04;100.00;102559.56;5073317;28;20128;-85
2022/01/14 02:30:50;;;;;;;36.55;17.90;;;0.90;99.90;;;2.01;100.00;102559.25;5057641;28;20492;-85
2022/01/14 02:33:19;;;;;;;35.58;16.58;;;0.90;99.90;;;1.93;100.00;102546.72;5056437;28;20025;-84
2022/01/14 02:35:51;;;;;;;33.00;16.15;;;0.80;99.90;;;1.85;100.00;102543.59;5056391;28;20029;-84
2022/01/14 02:38:19;;;;;;;40.13;17.63;;;0.70;99.90;;;1.75;100.00;102538.75;5056584;28;20094;-83
2022/01/14 02:40:47;;;;;;;39.38;17.27;;;0.70;99.90;;;1.71;100.00;102537.59;5073738;28;20495;-84
2022/01/14 02:43:16;;;;;;;34.58;17.60;;;0.60;99.90;;;1.64;100.00;102528.66;5058357;28;20088;-85
2022/01/14 02:45:52;;;;;;;43.72;18.30;;;0.50;99.90;;;1.53;100.00;102527.69;5057757;28;20097;-83
2022/01/14 02:48:29;;;;;;;42.80;18.58;;;0.50;99.90;;;1.43;100.00;102535.81;5056543;28;20032;-86
2022/01/14 02:51:01;;;;;;;35.60;16.48;;;0.40;99.90;;;1.35;100.00;102525.19;5056772;28;20029;-82
2022/01/14 02:56:15;;;;;;;38.33;17.27;;;0.20;99.90;;;1.23;100.00;102518.13;5057474;28;20480;-82
2022/01/14 02:58:42;;;;;;;44.58;19.73;;;0.20;99.90;;;1.22;100.00;102522.78;5056195;28;20025;-84
2022/01/14 03:01:17;;;;;;;46.53;19.80;;;0.20;99.90;;;1.15;100.00;102513.88;5073175;28;20183;-85
2022/01/14 03:03:45;;;;;;;39.72;17.58;;;0.10;99.90;;;1.11;100.00;102517.38;5056543;28;20040;-84
2022/01/14 03:06:14;;;;;;;42.88;20.38;;;0.00;99.90;;;1.01;100.00;102516.13;5072793;28;20029;-82
2022/01/14 03:08:41;;;;;;;45.53;20.95;;;0.00;99.90;;;1.03;100.00;102515.84;5055473;28;20485;-83
2022/01/14 03:11:17;;;;;;;47.00;19.20;;;0.00;99.90;;;1.11;100.00;102515.47;5055508;28;20093;-83
2022/01/14 03:13:43;;;;;;;47.85;20.13;;;0.00;99.90;;;1.13;100.00;102515.19;5056704;28;20032;-85
2022/01/14 03:16:09;;;;;;;57.40;20.85;;;0.00;99.90;;;1.13;100.00;102509.69;5056427;28;20052;-85
2022/01/14 03:18:48;;;;;;;47.22;21.27;;;0.00;99.90;;;1.10;100.00;102507.44;5055460;28;20430;-84
2022/01/14 03:21:16;;;;;;;47.60;21.55;;;0.00;99.90;;;1.15;100.00;102496.53;5055454;28;20078;-86
2022/01/14 03:23:51;;;;;;;45.58;20.92;;;0.00;99.90;;;1.10;100.00;102485.41;5071957;28;20431;-83
2022/01/14 03:26:21;;;;;;;51.28;22.08;;;0.00;99.90;;;1.13;100.00;102491.25;5072584;28;20041;-84
2022/01/14 03:28:48;;;;;;;42.58;18.23;;;0.00;99.90;;;1.00;100.00;102486.09;5056107;28;20143;-84
2022/01/14 03:31:14;;;;;;;39.00;17.23;;;-0.10;99.90;;;0.84;100.00;102487.75;5058781;28;20493;-86
2022/01/14 03:33:41;;;;;;;55.65;20.70;;;-0.20;99.90;;;0.79;100.00;102487.69;5056980;28;20539;-80
2022/01/14 03:36:07;;;;;;;65.20;24.70;;;-0.20;99.90;;;0.90;100.00;102477.69;5055831;28;20504;-82
2022/01/14 03:38:34;;;;;;;51.22;22.23;;;-0.20;99.90;;;0.92;100.00;102478.25;5055723;28;20032;-82
2022/01/14 03:41:03;;;;;;;61.65;24.42;;;-0.20;99.90;;;0.95;100.00;102484.09;5055517;28;20119;-84
2022/01/14 03:43:30;;;;;;;65.00;23.48;;;-0.20;99.90;;;1.06;100.00;102480.41;5057214;28;20032;-80
2022/01/14 03:45:56;;;;;;;61.70;23.73;;;-0.10;99.90;;;1.07;100.00;102481.25;5055412;28;20384;-81
2022/01/14 03:48:22;;;;;;;64.55;24.55;;;-0.10;99.90;;;1.03;100.00;102469.06;5055043;28;20123;-82
2022/01/14 03:50:48;;;;;;;65.15;25.63;;;-0.10;99.90;;;1.06;100.00;102477.66;5072310;28;20107;-84
2022/01/14 03:53:14;;;;;;;49.22;22.35;;;0.00;99.90;;;1.18;100.00;102482.25;5055485;28;20358;-83
2022/01/14 03:55:43;;;;;;;61.42;24.55;;;0.00;99.90;;;1.19;100.00;102478.44;5055188;28;20059;-83
2022/01/14 03:58:10;;;;;;;88.28;27.17;;;0.00;99.90;;;1.23;100.00;102472.16;5055113;28;20021;-81
2022/01/14 04:00:37;;;;;;;56.50;23.77;;;0.10;99.90;;;1.27;100.00;102472.50;5055266;28;20028;-82
2022/01/14 04:03:07;;;;;;;61.72;24.35;;;0.10;99.90;;;1.35;100.00;102481.16;5055704;28;20514;-83
2022/01/14 04:05:34;;;;;;;55.70;23.50;;;0.20;99.90;;;1.39;100.00;102478.72;5055723;28;20029;-86
2022/01/14 04:08:01;;;;;;;53.05;22.42;;;0.20;99.90;;;1.41;100.00;102482.06;5055411;28;20043;-85
2022/01/14 04:10:27;;;;;;;50.35;23.80;;;0.30;99.90;;;1.45;100.00;102481.31;5054530;28;20036;-87
2022/01/14 04:13:04;;;;;;;55.15;23.70;;;0.30;99.90;;;1.52;100.00;102487.47;5055982;28;20025;-83
2022/01/14 04:15:45;;;;;;;119.75;29.63;;;0.30;99.90;;;1.57;100.00;102487.53;5055290;28;20024;-80
2022/01/14 04:18:18;;;;;;;66.95;24.33;;;0.40;99.90;;;1.63;100.00;102493.13;5054132;28;20480;-81
2022/01/14 04:20:49;;;;;;;98.80;26.50;;;0.50;99.90;;;1.64;100.00;102490.09;5070598;28;20065;-83
2022/01/14 04:23:20;;;;;;;64.05;24.27;;;0.50;99.90;;;1.65;100.00;102493.69;5053256;28;20037;-84
2022/01/14 04:25:53;;;;;;;101.47;28.10;;;0.50;99.90;;;1.64;100.00;102487.34;5070295;28;20334;-83
2022/01/14 04:28:23;;;;;;;62.25;24.50;;;0.50;99.90;;;1.62;100.00;102478.53;5052929;28;20047;-83
2022/01/14 04:30:54;;;;;;;74.40;26.35;;;0.50;99.90;;;1.62;100.00;102474.91;5069526;28;20033;-84
2022/01/14 04:33:25;;;;;;;79.43;26.05;;;0.50;99.90;;;1.57;100.00;102479.25;5052235;28;20032;-82
2022/01/14 04:35:54;;;;;;;63.35;27.33;;;0.50;99.90;;;1.58;100.00;102477.34;5069140;28;20025;-83
2022/01/14 04:38:22;;;;;;;57.10;24.20;;;0.50;99.90;;;1.58;100.00;102482.84;5069191;28;20425;-85
2022/01/14 04:40:48;;;;;;;69.05;26.15;;;0.50;99.90;;;1.54;100.00;102482.53;5069742;28;20025;-84
2022/01/14 04:43:19;;;;;;;102.10;29.55;;;0.50;99.90;;;1.51;100.00;102476.69;5069836;28;20028;-84
2022/01/14 04:48:38;;;;;;;66.45;26.15;;;0.50;99.90;;;1.59;100.00;102466.09;5023214;28;20033;-83
2022/01/14 04:51:09;;;;;;;74.88;27.67;;;0.50;99.90;;;1.56;100.00;102469.34;5069416;28;20029;-83
2022/01/14 04:53:36;;;;;;;53.00;23.67;;;0.50;99.90;;;1.54;100.00;102474.25;5052984;28;20035;-81
2022/01/14 04:56:03;;;;;;;70.10;30.13;;;0.50;99.90;;;1.56;100.00;102477.63;5052374;28;20052;-84
2022/01/14 04:58:29;;;;;;;83.70;27.42;;;0.40;99.90;;;1.49;100.00;102479.72;5068886;28;20031;-83
2022/01/14 05:00:55;;;;;;;55.53;25.33;;;0.40;99.90;;;1.50;100.00;102466.78;5054309;28;20083;-82
2022/01/14 05:03:22;;;;;;;61.33;26.13;;;0.40;99.90;;;1.50;100.00;102469.53;5069573;28;20488;-82
2022/01/14 05:05:51;;;;;;;56.30;26.05;;;0.40;99.90;;;1.47;100.00;102465.38;5052853;28;20051;-82
2022/01/14 05:08:24;;;;;;;63.05;25.77;;;0.40;99.90;;;1.47;100.00;102468.13;5053184;28;20055;-84
2022/01/14 05:13:18;;;;;;;60.08;24.80;;;0.30;99.90;;;1.50;100.00;102473.13;5055488;28;20031;-83
2022/01/14 05:15:44;;;;;;;67.65;26.83;;;0.30;99.90;;;1.51;100.00;102471.19;5053455;28;20106;-82
2022/01/14 05:18:11;;;;;;;54.90;24.60;;;0.40;99.90;;;1.54;100.00;102476.22;5054389;28;20027;-83
2022/01/14 05:20:37;;;;;;;67.30;28.35;;;0.40;99.90;;;1.56;100.00;102471.28;5054871;28;20025;-84
2022/01/14 05:23:03;;;;;;;63.47;27.77;;;0.40;99.90;;;1.56;100.00;102483.13;5054193;28;20087;-84
2022/01/14 05:25:30;;;;;;;54.28;26.48;;;0.40;99.90;;;1.58;100.00;102483.69;5054529;28;20029;-84
2022/01/14 05:27:56;;;;;;;73.70;28.10;;;0.40;99.90;;;1.61;100.00;102479.59;5053697;28;20033;-81
2022/01/14 05:30:21;;;;;;;65.10;25.98;;;0.40;99.90;;;1.61;100.00;102484.28;5053156;28;20554;-83
2022/01/14 05:32:53;;;;;;;113.15;31.25;;;0.40;99.90;;;1.55;100.00;102473.19;5052911;28;20052;-84
2022/01/14 05:35:24;;;;;;;60.10;25.23;;;0.50;99.90;;;1.60;100.00;102475.19;5053608;28;20119;-83
2022/01/14 05:37:51;;;;;;;65.03;26.33;;;0.50;99.90;;;1.65;100.00;102474.41;5053323;28;20033;-80
2022/01/14 05:40:21;;;;;;;56.33;24.40;;;0.50;99.90;;;1.65;100.00;102477.16;5070530;28;20123;-84
2022/01/14 05:42:47;;;;;;;54.65;24.48;;;0.50;99.90;;;1.70;100.00;102477.25;5054724;28;20128;-84
2022/01/14 05:45:16;;;;;;;63.22;26.13;;;0.50;99.90;;;1.70;100.00;102480.00;5055247;28;20029;-85
2022/01/14 05:47:43;;;;;;;52.30;24.65;;;0.50;99.90;;;1.70;100.00;102471.75;5061950;28;20088;-83
2022/01/14 05:50:19;;;;;;;62.72;25.77;;;0.50;99.90;;;1.72;100.00;102475.06;5055415;28;20033;-84
2022/01/14 05:52:45;;;;;;;69.93;29.27;;;0.60;99.90;;;1.76;100.00;102484.50;5064971;28;20096;-83
2022/01/14 05:55:16;;;;;;;62.33;26.38;;;0.50;99.90;;;1.73;100.00;102485.00;5069189;28;20053;-84
2022/01/14 05:57:43;;;;;;;65.25;27.65;;;0.60;99.90;;;1.78;100.00;102474.03;5069696;28;20127;-84
2022/01/14 06:00:18;;;;;;;69.40;28.25;;;0.60;99.90;;;1.75;100.00;102467.13;5066670;28;20028;-82
2022/01/14 06:02:47;;;;;;;76.18;28.23;;;0.60;99.90;;;1.78;100.00;102479.56;5058886;28;20480;-85
2022/01/14 06:05:13;;;;;;;67.47;25.45;;;0.60;99.90;;;1.79;100.00;102470.22;5055774;28;20064;-84
2022/01/14 06:07:39;;;;;;;87.38;29.02;;;0.60;99.90;;;1.82;100.00;102466.94;5066008;28;20056;-87
2022/01/14 06:10:06;;;;;;;63.90;26.00;;;0.60;99.90;;;1.81;100.00;102462.50;5065672;28;20029;-86
2022/01/14 06:12:32;;;;;;;71.45;27.15;;;0.60;99.90;;;1.79;100.00;102457.28;5083750;28;20376;-86
2022/01/14 06:15:00;;;;;;;55.22;24.58;;;0.60;99.90;;;1.80;100.00;102449.84;5067854;28;20100;-86
2022/01/14 06:17:26;;;;;;;66.13;26.25;;;0.60;99.90;;;1.82;100.00;102444.91;5059769;28;20032;-85
2022/01/14 06:19:52;;;;;;;106.47;28.48;;;0.60;99.90;;;1.80;100.00;102441.56;5057168;28;20400;-86
2022/01/14 06:22:18;;;;;;;64.32;25.95;;;0.60;99.90;;;1.76;100.00;102443.16;5056522;28;20132;-82
2022/01/14 06:24:44;;;;;;;100.40;27.70;;;0.60;99.90;;;1.72;100.00;102439.25;5056933;28;20063;-87
2022/01/14 06:27:10;;;;;;;71.07;26.00;;;0.60;99.90;;;1.65;100.00;102436.69;5059632;28;20048;-83
2022/01/14 06:29:36;;;;;;;72.10;27.15;;;0.50;99.90;;;1.68;100.00;102438.94;5057079;28;20029;-83
2022/01/14 06:32:02;;;;;;;55.92;23.85;;;0.50;99.90;;;1.71;100.00;102443.94;5057748;28;20031;-83
2022/01/14 06:34:28;;;;;;;54.72;24.92;;;0.50;99.90;;;1.67;100.00;102431.75;5057740;28;20388;-83
2022/01/14 06:36:55;;;;;;;58.95;24.45;;;0.50;99.90;;;1.65;100.00;102433.94;5074621;28;20111;-86
2022/01/14 06:39:21;;;;;;;60.83;23.42;;;0.50;99.90;;;1.65;100.00;102433.09;5074303;28;20028;-87
2022/01/14 06:41:47;;;;;;;76.32;27.08;;;0.50;99.90;;;1.55;100.00;102423.63;5073822;28;20199;-84
2022/01/14 06:44:13;;;;;;;58.15;23.95;;;0.40;99.90;;;1.45;100.00;102428.13;5056841;28;20056;-83
2022/01/14 06:46:39;;;;;;;61.20;26.90;;;0.40;99.90;;;1.44;100.00;102415.47;5057369;28;20033;-83
2022/01/14 06:49:08;;;;;;;57.00;24.73;;;0.30;99.90;;;1.46;100.00;102418.81;5057310;28;20040;-85
2022/01/14 06:51:34;;;;;;;62.90;24.23;;;0.30;99.90;;;1.47;100.00;102428.75;5059162;28;20044;-82
2022/01/14 06:54:00;;;;;;;58.63;26.00;;;0.30;99.90;;;1.49;100.00;102429.31;5057072;28;20492;-84
2022/01/14 06:56:26;;;;;;;67.22;24.73;;;0.30;99.90;;;1.48;100.00;102435.91;5056674;28;20067;-84
2022/01/14 06:58:52;;;;;;;69.10;27.50;;;0.30;99.90;;;1.49;100.00;102440.31;5055556;28;20029;-81
2022/01/14 07:01:18;;;;;;;63.50;26.10;;;0.30;99.90;;;1.51;100.00;102440.88;5055878;28;20048;-82
2022/01/14 07:03:43;;;;;;;53.60;24.42;;;0.30;99.90;;;1.48;100.00;102420.22;5057039;28;20059;-83
2022/01/14 07:06:10;;;;;;;50.13;23.05;;;0.30;99.90;;;1.47;100.00;102413.06;5056763;28;20476;-83
2022/01/14 07:08:36;;;;;;;55.55;24.02;;;0.30;99.90;;;1.43;100.00;102413.81;5056874;28;20036;-81
2022/01/14 07:11:02;;;;;;;56.17;22.85;;;0.30;99.90;;;1.41;100.00;102408.53;5072034;28;20033;-85
2022/01/14 07:13:29;;;;;;;60.65;25.90;;;0.30;99.90;;;1.37;100.00;102399.16;5056835;28;20057;-81
2022/01/14 07:15:55;;;;;;;58.58;25.45;;;0.20;99.90;;;1.25;100.00;102395.69;5055615;28;20136;-80
2022/01/14 07:18:21;;;;;;;67.95;26.20;;;0.20;99.90;;;1.24;100.00;102391.25;5057371;28;20064;-85
2022/01/14 07:20:47;;;;;;;52.10;23.20;;;0.10;99.90;;;1.20;100.00;102397.50;5055780;28;20035;-85
2022/01/14 07:23:12;;;;;;;51.58;22.02;;;0.10;99.90;;;1.15;100.00;102380.94;5055568;28;20041;-85
2022/01/14 07:25:39;;;;;;;50.08;22.63;;;0.00;99.90;;;1.14;100.00;102382.00;5055404;28;20049;-83
2022/01/14 07:28:06;;;;;;;55.05;23.92;;;0.00;99.90;;;1.10;100.00;102403.69;5056343;28;20373;-83
2022/01/14 07:30:32;;;;;;;45.67;21.80;;;0.00;99.90;;;1.06;100.00;102413.53;5055958;28;20033;-83
2022/01/14 07:32:59;;;;;;;51.83;22.95;;;-0.10;99.90;;;1.14;100.00;102420.53;5072800;28;20036;-83
2022/01/14 07:35:25;;;;;;;59.20;23.58;;;-0.10;99.90;;;1.15;100.00;102420.31;5055529;28;20477;-85
2022/01/14 07:37:51;;;;;;;53.47;23.05;;;-0.10;99.90;;;1.16;100.00;102410.94;5072241;28;20036;-85
2022/01/14 07:40:17;;;;;;;48.45;24.52;;;0.00;99.90;;;1.22;100.00;102420.94;5055269;28;20025;-83
2022/01/14 07:42:44;;;;;;;63.90;25.52;;;0.00;99.90;;;1.22;100.00;102429.19;5055273;28;20072;-83
2022/01/14 07:45:10;;;;;;;63.30;26.67;;;0.00;99.90;;;1.23;100.00;102414.34;5054960;28;20418;-83
2022/01/14 07:47:36;;;;;;;64.75;25.45;;;0.10;99.90;;;1.24;100.00;102410.53;5055225;28;20112;-85
2022/01/14 07:50:03;;;;;;;66.47;25.90;;;0.10;99.90;;;1.29;100.00;102420.75;5055246;28;20499;-84
2022/01/14 07:52:30;;;;;;;69.90;28.15;;;0.10;99.90;;;1.35;100.00;102417.81;5055164;28;20029;-87
2022/01/14 07:54:56;;;;;;;77.63;28.98;;;0.20;99.90;;;1.37;100.00;102414.81;5053849;28;20032;-84
2022/01/14 07:57:22;;;;;;;64.00;26.38;;;0.20;99.90;;;1.38;100.00;102411.00;5054381;28;20151;-85
2022/01/14 07:59:48;;;;;;;53.80;26.02;;;0.20;99.90;;;1.38;100.00;102403.53;5075550;28;20036;-88
2022/01/14 08:02:13;;;;;;;93.25;32.00;;;0.20;99.90;;;1.40;100.00;102408.81;5060692;28;20091;-85
2022/01/14 08:04:41;;;;;;;88.68;31.40;;;0.30;99.90;;;1.42;100.00;102412.13;5054589;28;20036;-83
2022/01/14 08:07:11;;;;;;;63.03;27.85;;;0.30;99.90;;;1.50;100.00;102419.97;5071509;28;20029;-81
2022/01/14 08:09:42;;;;;;;64.68;27.08;;;0.40;99.90;;;1.57;100.00;102415.91;5072091;28;20068;-83
2022/01/14 08:12:12;;;;;;;69.15;27.10;;;0.40;99.90;;;1.65;100.00;102414.66;5055171;28;20033;-84
2022/01/14 08:14:39;;;;;;;59.53;25.60;;;0.50;99.90;;;1.73;100.00;102432.66;5058186;28;20037;-83
2022/01/14 08:17:06;;;;;;;75.38;28.00;;;0.50;99.90;;;1.75;100.00;102438.75;5059018;28;20028;-81
2022/01/14 08:19:33;;;;;;;64.05;27.63;;;0.60;99.90;;;1.76;100.00;102432.16;5059603;28;20499;-82
2022/01/14 08:22:07;;;;;;;67.03;26.52;;;0.50;99.90;;;1.76;100.00;102423.88;5075678;28;20166;-82
2022/01/14 08:24:36;;;;;;;71.75;28.63;;;0.60;99.90;;;1.82;100.00;102431.13;5059357;28;20090;-83
2022/01/14 08:27:05;;;;;;;73.70;28.55;;;0.60;99.90;;;1.86;100.00;102443.31;5075850;28;20480;-84
2022/01/14 08:29:33;;;;;;;86.28;31.88;;;0.60;99.90;;;1.85;100.00;102434.19;5059586;28;20040;-84
2022/01/14 08:31:59;;;;;;;75.40;29.80;;;0.70;99.90;;;1.90;100.00;102431.50;5078362;28;20350;-83
2022/01/14 08:34:25;;;;;;;82.57;32.85;;;0.70;99.90;;;1.96;100.00;102427.69;5060643;28;20086;-84
2022/01/14 08:36:51;;;;;;;79.38;31.05;;;0.70;99.90;;;2.06;100.00;102435.25;5059941;28;20036;-84
2022/01/14 08:39:19;;;;;;;76.60;31.88;;;0.80;99.90;;;2.08;100.00;102428.41;5076027;28;20047;-82
2022/01/14 08:41:46;;;;;;;74.82;30.30;;;0.90;99.90;;;2.11;100.00;102446.34;5058927;28;20028;-83
2022/01/14 08:44:14;;;;;;;82.95;34.75;;;0.90;99.90;;;2.15;100.00;102444.75;5059402;28;20032;-85
2022/01/14 08:46:42;;;;;;;92.50;34.80;;;0.90;99.90;;;2.13;100.00;102458.78;5077148;28;20028;-85
2022/01/14 08:49:09;;;;;;;92.20;35.85;;;0.90;99.90;;;2.20;100.00;102458.59;5058735;28;20051;-81
2022/01/14 08:51:39;;;;;;;87.00;36.03;;;1.00;99.90;;;2.26;100.00;102473.25;5076147;28;20039;-83
2022/01/14 08:54:05;;;;;;;94.05;37.70;;;1.00;99.90;;;2.30;100.00;102468.91;5058615;28;20025;-84
2022/01/14 08:56:32;;;;;;;94.07;38.50;;;1.10;99.90;;;2.38;100.00;102474.78;5057675;28;20472;-84
2022/01/14 08:59:00;;;;;;;113.03;38.28;;;1.10;99.90;;;2.52;100.00;102489.00;5075854;28;20031;-84
2022/01/14 09:01:27;;;;;;;113.40;39.35;;;1.20;99.90;;;2.57;100.00;102491.78;5077419;28;20081;-83
2022/01/14 09:03:53;;;;;;;120.32;41.65;;;1.30;99.90;;;2.66;100.00;102498.53;5075634;28;20102;-84
2022/01/14 09:06:19;;;;;;;121.65;40.92;;;1.40;99.90;;;2.66;100.00;102502.09;5058901;28;20095;-84
2022/01/14 09:08:45;;;;;;;126.70;40.42;;;1.50;99.90;;;2.78;100.00;102499.19;5058646;28;20480;-82
2022/01/14 09:11:14;;;;;;;118.22;40.88;;;1.50;99.90;;;2.78;100.00;102510.25;5077603;28;20468;-84
2022/01/14 09:13:40;;;;;;;116.32;40.03;;;1.60;99.90;;;2.84;100.00;102508.34;5058670;28;20036;-84
2022/01/14 09:16:06;;;;;;;128.07;39.75;;;1.70;99.90;;;2.87;100.00;102510.59;5058487;28;20130;-85
2022/01/14 09:18:32;;;;;;;116.75;39.72;;;1.70;99.90;;;2.96;100.00;102507.09;5058666;28;20033;-85
2022/01/14 09:20:58;;;;;;;118.07;40.92;;;1.70;99.90;;;2.95;100.00;102513.72;5058101;28;20090;-85
2022/01/14 09:23:25;;;;;;;124.35;41.25;;;1.70;99.90;;;2.99;100.00;102525.03;5058308;28;20047;-87
2022/01/14 09:25:56;;;;;;;122.03;41.00;;;1.70;99.90;;;3.06;100.00;102539.47;5077904;28;20055;-88
2022/01/14 09:28:23;;;;;;;144.05;40.88;;;1.80;99.90;;;3.08;100.00;102535.34;5059736;28;20043;-85
2022/01/14 09:30:49;;;;;;;173.05;42.05;;;1.80;99.90;;;3.11;100.00;102526.53;5075230;28;20037;-81
2022/01/14 09:33:17;;;;;;;106.07;37.00;;;1.80;99.90;;;3.11;100.00;102540.34;5057967;28;20055;-82
2022/01/14 09:35:46;;;;;;;128.38;38.78;;;1.90;99.90;;;3.15;100.00;102530.44;5073948;28;20128;-84
2022/01/14 09:38:13;;;;;;;113.07;37.80;;;1.90;99.90;;;3.20;100.00;102535.19;5074955;28;20484;-86
2022/01/14 09:40:47;;;;;;;125.80;38.40;;;1.90;99.90;;;3.16;100.00;102534.03;5058320;28;20046;-85
2022/01/14 09:43:15;;;;;;;97.18;34.72;;;1.90;99.90;;;3.25;100.00;102545.44;5057216;28;20058;-84
2022/01/14 09:45:42;;;;;;;115.13;36.28;;;2.00;99.90;;;3.31;100.00;102538.88;5059308;28;20081;-86
2022/01/14 09:48:08;;;;;;;89.70;34.25;;;2.00;99.90;;;3.36;100.00;102536.97;5077459;28;20123;-85
2022/01/14 09:50:34;;;;;;;113.90;35.42;;;2.10;99.90;;;3.38;100.00;102537.53;5061056;28;20440;-83
2022/01/14 09:53:00;;;;;;;147.27;37.58;;;2.10;99.90;;;3.44;100.00;102536.47;5079034;28;20043;-83
2022/01/14 09:55:26;;;;;;;106.97;34.80;;;2.20;99.90;;;3.49;100.00;102524.63;5061662;28;20032;-86
2022/01/14 09:57:57;;;;;;;93.28;31.67;;;2.20;99.90;;;3.54;100.00;102519.13;5061725;28;20025;-84
2022/01/14 10:00:23;;;;;;;112.32;37.55;;;2.30;99.90;;;3.51;100.00;102525.19;5061689;28;20472;-86
2022/01/14 10:02:52;;;;;;;141.55;40.25;;;2.30;99.90;;;3.36;100.00;102519.56;5079058;28;20033;-86
2022/01/14 10:05:39;;;;;;;138.85;37.92;;;2.30;99.90;;;3.52;100.00;102529.63;5061272;28;20039;-83
2022/01/14 10:08:25;;;;;;;127.85;37.03;;;2.30;99.90;;;3.55;100.00;102524.41;5077217;28;20029;-83
2022/01/14 10:11:01;;;;;;;124.55;36.90;;;2.30;99.90;;;3.59;100.00;102514.50;5059847;28;20396;-85
2022/01/14 10:13:33;;;;;;;;;;;2.30;99.90;;;3.62;100.00;102515.91;5063919;28;20029;-83
2022/01/14 10:16:07;;;;;;;119.03;37.97;;;2.40;99.90;;;3.42;100.00;102522.09;5060226;28;19912;-84
2022/01/14 10:18:36;;;;;;;119.78;35.60;;;2.40;99.90;;;3.52;100.00;102533.22;5078840;28;20029;-85
2022/01/14 10:21:10;;;;;;;122.50;37.88;;;2.40;99.90;;;3.44;100.00;102524.59;5079286;28;20029;-84
2022/01/14 10:23:47;;;;;;;119.28;35.35;;;2.40;99.90;;;3.59;100.00;102533.84;5060664;28;20028;-86
2022/01/14 10:26:16;;;;;;;136.80;35.08;;;2.40;99.90;;;3.45;100.00;102507.75;5078219;28;20025;-83
2022/01/14 10:28:56;;;;;;;107.85;33.58;;;2.40;99.90;;;3.60;100.00;102520.84;5061691;28;20035;-85
2022/01/14 10:31:35;;;;;;;101.38;34.67;;;2.40;99.90;;;3.64;100.00;102522.81;5061254;28;20051;-80
2022/01/14 10:34:29;;;;;;;108.82;33.63;;;2.40;99.90;;;3.67;100.00;102521.44;5061626;28;20024;-85
2022/01/14 10:37:16;;;;;;;118.90;33.97;;;2.40;99.90;;;3.61;100.00;102520.59;5074820;28;20029;-83
2022/01/14 10:39:53;;;;;;;114.45;33.35;;;2.50;99.90;;;3.54;100.00;102508.09;5060987;28;20028;-84
2022/01/14 10:42:33;;;;;;;111.70;33.83;;;2.50;99.90;;;3.42;100.00;102504.69;5060825;28;20033;-84